sensor_id;sensor_type;location;lat;lon;timestamp;P1;P2;P0
74333;PMS5003;62753;40.394;-80.022;2024-01-06T00:01:33;34;26;
74333;PMS5003;62753;40.394;-80.022;2024-01-06T00:03:59;22;20;
74333;PMS5003;62753;40.394;-80.022;2024-01-06T00:06:24;22;20;
74333;PMS5003;62753;40.394;-80.022;2024-01-06T00:08:51;29;23;
74333;PMS5003;62753;40.394;-80.022;2024-01-06T00:11:16;24;20;
74333;PMS5003;62753;40.394;-80.022;2024-01-06T00:13:41;33;29;
74333;PMS5003;62753;40.394;-80.022;2024-01-06T00:16:07;28;22;
74333;PMS5003;62753;40.394;-80.022;2024-01-06T00:18:32;30;27;
74333;PMS5003;62753;40.394;-80.022;2024-01-06T00:21:00;34;25;
74333;PMS5003;62753;40.394;-80.022;2024-01-06T00:23:23;29;26;
74333;PMS5003;62753;40.394;-80.022;2024-01-06T00:25:47;32;28;
74333;PMS5003;62753;40.394;-80.022;2024-01-06T00:28:12;35;28;
74333;PMS5003;62753;40.394;-80.022;2024-01-06T00:30:38;33;26;
74333;PMS5003;62753;40.394;-80.022;2024-01-06T00:33:03;33;30;
74333;PMS5003;62753;40.394;-80.022;2024-01-06T00:35:28;37;31;
74333;PMS5003;62753;40.394;-80.022;2024-01-06T00:37:53;27;25;
74333;PMS5003;62753;40.394;-80.022;2024-01-06T00:40:18;34;28;
74333;PMS5003;62753;40.394;-80.022;2024-01-06T00:42:44;33;26;
74333;PMS5003;62753;40.394;-80.022;2024-01-06T00:45:09;33;25;
74333;PMS5003;62753;40.394;-80.022;2024-01-06T00:47:34;26;22;
74333;PMS5003;62753;40.394;-80.022;2024-01-06T00:49:59;25;21;
74333;PMS5003;62753;40.394;-80.022;2024-01-06T00:52:24;28;25;
74333;PMS5003;62753;40.394;-80.022;2024-01-06T00:54:51;31;26;
74333;PMS5003;62753;40.394;-80.022;2024-01-06T00:57:15;33;29;
74333;PMS5003;62753;40.394;-80.022;2024-01-06T00:59:41;25;23;
74333;PMS5003;62753;40.394;-80.022;2024-01-06T01:02:06;35;30;
74333;PMS5003;62753;40.394;-80.022;2024-01-06T01:04:34;43;33;
74333;PMS5003;62753;40.394;-80.022;2024-01-06T01:06:58;31;24;
74333;PMS5003;62753;40.394;-80.022;2024-01-06T01:09:23;26;21;
74333;PMS5003;62753;40.394;-80.022;2024-01-06T01:11:50;32;31;
74333;PMS5003;62753;40.394;-80.022;2024-01-06T01:14:14;32;24;
74333;PMS5003;62753;40.394;-80.022;2024-01-06T01:16:39;27;24;
74333;PMS5003;62753;40.394;-80.022;2024-01-06T01:19:04;33;27;
74333;PMS5003;62753;40.394;-80.022;2024-01-06T01:21:30;28;25;
74333;PMS5003;62753;40.394;-80.022;2024-01-06T01:23:55;30;26;
74333;PMS5003;62753;40.394;-80.022;2024-01-06T01:26:20;47;35;
74333;PMS5003;62753;40.394;-80.022;2024-01-06T01:28:47;31;26;
74333;PMS5003;62753;40.394;-80.022;2024-01-06T01:31:13;38;30;
74333;PMS5003;62753;40.394;-80.022;2024-01-06T01:33:38;35;30;
74333;PMS5003;62753;40.394;-80.022;2024-01-06T01:36:02;36;29;
74333;PMS5003;62753;40.394;-80.022;2024-01-06T01:38:29;36;30;
74333;PMS5003;62753;40.394;-80.022;2024-01-06T01:40:53;36;29;
74333;PMS5003;62753;40.394;-80.022;2024-01-06T01:43:19;44;32;
74333;PMS5003;62753;40.394;-80.022;2024-01-06T01:45:45;32;28;
74333;PMS5003;62753;40.394;-80.022;2024-01-06T01:48:09;34;31;
74333;PMS5003;62753;40.394;-80.022;2024-01-06T01:50:34;37;26;
74333;PMS5003;62753;40.394;-80.022;2024-01-06T01:53:00;32;25;
74333;PMS5003;62753;40.394;-80.022;2024-01-06T01:55:25;39;26;
74333;PMS5003;62753;40.394;-80.022;2024-01-06T01:57:52;36;32;
74333;PMS5003;62753;40.394;-80.022;2024-01-06T02:00:17;35;31;
74333;PMS5003;62753;40.394;-80.022;2024-01-06T02:02:42;40;31;
74333;PMS5003;62753;40.394;-80.022;2024-01-06T02:05:08;37;25;
74333;PMS5003;62753;40.394;-80.022;2024-01-06T02:07:33;33;28;
74333;PMS5003;62753;40.394;-80.022;2024-01-06T02:09:58;48;38;
74333;PMS5003;62753;40.394;-80.022;2024-01-06T02:12:24;32;26;
74333;PMS5003;62753;40.394;-80.022;2024-01-06T02:14:49;29;25;
74333;PMS5003;62753;40.394;-80.022;2024-01-06T02:17:15;43;32;
74333;PMS5003;62753;40.394;-80.022;2024-01-06T02:19:41;34;30;
74333;PMS5003;62753;40.394;-80.022;2024-01-06T02:22:05;36;32;
74333;PMS5003;62753;40.394;-80.022;2024-01-06T02:24:34;31;25;
74333;PMS5003;62753;40.394;-80.022;2024-01-06T02:26:56;28;24;
74333;PMS5003;62753;40.394;-80.022;2024-01-06T02:29:21;33;25;
74333;PMS5003;62753;40.394;-80.022;2024-01-06T02:31:46;25;24;
74333;PMS5003;62753;40.394;-80.022;2024-01-06T02:34:12;33;27;
74333;PMS5003;62753;40.394;-80.022;2024-01-06T02:36:38;31;23;
74333;PMS5003;62753;40.394;-80.022;2024-01-06T02:39:02;31;24;
74333;PMS5003;62753;40.394;-80.022;2024-01-06T02:41:28;38;28;
74333;PMS5003;62753;40.394;-80.022;2024-01-06T02:43:54;28;25;
74333;PMS5003;62753;40.394;-80.022;2024-01-06T02:46:19;30;26;
74333;PMS5003;62753;40.394;-80.022;2024-01-06T02:48:44;29;25;
74333;PMS5003;62753;40.394;-80.022;2024-01-06T02:51:10;33;25;
74333;PMS5003;62753;40.394;-80.022;2024-01-06T02:53:35;27;27;
74333;PMS5003;62753;40.394;-80.022;2024-01-06T02:56:01;31;26;
74333;PMS5003;62753;40.394;-80.022;2024-01-06T02:58:27;31;26;
74333;PMS5003;62753;40.394;-80.022;2024-01-06T03:00:52;35;28;
74333;PMS5003;62753;40.394;-80.022;2024-01-06T03:03:17;36;26;
74333;PMS5003;62753;40.394;-80.022;2024-01-06T03:05:43;29;28;
74333;PMS5003;62753;40.394;-80.022;2024-01-06T03:08:09;25;24;
74333;PMS5003;62753;40.394;-80.022;2024-01-06T03:10:35;40;26;
74333;PMS5003;62753;40.394;-80.022;2024-01-06T03:12:59;30;25;
74333;PMS5003;62753;40.394;-80.022;2024-01-06T03:15:25;32;28;
74333;PMS5003;62753;40.394;-80.022;2024-01-06T03:17:50;33;26;
74333;PMS5003;62753;40.394;-80.022;2024-01-06T03:20:15;38;28;
74333;PMS5003;62753;40.394;-80.022;2024-01-06T03:22:40;38;30;
74333;PMS5003;62753;40.394;-80.022;2024-01-06T03:25:08;36;30;
74333;PMS5003;62753;40.394;-80.022;2024-01-06T03:27:33;27;26;
74333;PMS5003;62753;40.394;-80.022;2024-01-06T03:29:57;33;27;
74333;PMS5003;62753;40.394;-80.022;2024-01-06T03:32:22;39;31;
74333;PMS5003;62753;40.394;-80.022;2024-01-06T03:34:47;37;30;
74333;PMS5003;62753;40.394;-80.022;2024-01-06T03:37:14;39;31;
74333;PMS5003;62753;40.394;-80.022;2024-01-06T03:39:39;32;27;
74333;PMS5003;62753;40.394;-80.022;2024-01-06T03:42:05;34;29;
74333;PMS5003;62753;40.394;-80.022;2024-01-06T03:44:30;31;28;
74333;PMS5003;62753;40.394;-80.022;2024-01-06T03:46:56;37;29;
74333;PMS5003;62753;40.394;-80.022;2024-01-06T03:49:21;33;29;
74333;PMS5003;62753;40.394;-80.022;2024-01-06T03:51:46;39;31;
74333;PMS5003;62753;40.394;-80.022;2024-01-06T03:54:12;25;24;
74333;PMS5003;62753;40.394;-80.022;2024-01-06T03:56:37;39;32;
74333;PMS5003;62753;40.394;-80.022;2024-01-06T03:59:02;44;34;
74333;PMS5003;62753;40.394;-80.022;2024-01-06T04:01:28;38;30;
74333;PMS5003;62753;40.394;-80.022;2024-01-06T04:03:53;37;28;
74333;PMS5003;62753;40.394;-80.022;2024-01-06T04:06:19;32;26;
74333;PMS5003;62753;40.394;-80.022;2024-01-06T04:08:44;30;28;
74333;PMS5003;62753;40.394;-80.022;2024-01-06T04:11:10;39;30;
74333;PMS5003;62753;40.394;-80.022;2024-01-06T04:13:39;43;33;
74333;PMS5003;62753;40.394;-80.022;2024-01-06T04:16:00;33;29;
74333;PMS5003;62753;40.394;-80.022;2024-01-06T04:18:26;43;34;
74333;PMS5003;62753;40.394;-80.022;2024-01-06T04:20:53;36;29;
74333;PMS5003;62753;40.394;-80.022;2024-01-06T04:23:17;37;29;
74333;PMS5003;62753;40.394;-80.022;2024-01-06T04:25:42;37;34;
74333;PMS5003;62753;40.394;-80.022;2024-01-06T04:28:08;34;30;
74333;PMS5003;62753;40.394;-80.022;2024-01-06T04:30:32;40;36;
74333;PMS5003;62753;40.394;-80.022;2024-01-06T04:32:57;38;30;
74333;PMS5003;62753;40.394;-80.022;2024-01-06T04:35:23;39;34;
74333;PMS5003;62753;40.394;-80.022;2024-01-06T04:37:51;36;32;
74333;PMS5003;62753;40.394;-80.022;2024-01-06T04:40:15;42;34;
74333;PMS5003;62753;40.394;-80.022;2024-01-06T04:42:40;45;35;
74333;PMS5003;62753;40.394;-80.022;2024-01-06T04:45:06;41;34;
74333;PMS5003;62753;40.394;-80.022;2024-01-06T04:47:31;33;28;
74333;PMS5003;62753;40.394;-80.022;2024-01-06T04:49:56;36;31;
74333;PMS5003;62753;40.394;-80.022;2024-01-06T04:52:22;33;28;
74333;PMS5003;62753;40.394;-80.022;2024-01-06T04:54:47;40;29;
74333;PMS5003;62753;40.394;-80.022;2024-01-06T04:57:12;38;29;
74333;PMS5003;62753;40.394;-80.022;2024-01-06T04:59:37;37;32;
74333;PMS5003;62753;40.394;-80.022;2024-01-06T05:02:03;47;29;
74333;PMS5003;62753;40.394;-80.022;2024-01-06T05:04:29;32;25;
74333;PMS5003;62753;40.394;-80.022;2024-01-06T05:06:54;32;29;
74333;PMS5003;62753;40.394;-80.022;2024-01-06T05:09:20;31;25;
74333;PMS5003;62753;40.394;-80.022;2024-01-06T05:11:45;38;32;
74333;PMS5003;62753;40.394;-80.022;2024-01-06T05:14:10;34;30;
74333;PMS5003;62753;40.394;-80.022;2024-01-06T05:16:35;39;30;
74333;PMS5003;62753;40.394;-80.022;2024-01-06T05:19:01;34;27;
74333;PMS5003;62753;40.394;-80.022;2024-01-06T05:21:26;36;28;
74333;PMS5003;62753;40.394;-80.022;2024-01-06T05:23:51;29;26;
74333;PMS5003;62753;40.394;-80.022;2024-01-06T05:26:18;32;25;
74333;PMS5003;62753;40.394;-80.022;2024-01-06T05:28:43;37;33;
74333;PMS5003;62753;40.394;-80.022;2024-01-06T05:31:11;31;25;
74333;PMS5003;62753;40.394;-80.022;2024-01-06T05:33:33;32;29;
74333;PMS5003;62753;40.394;-80.022;2024-01-06T05:35:59;35;29;
74333;PMS5003;62753;40.394;-80.022;2024-01-06T05:38:25;39;30;
74333;PMS5003;62753;40.394;-80.022;2024-01-06T05:40:49;40;31;
74333;PMS5003;62753;40.394;-80.022;2024-01-06T05:43:14;32;28;
74333;PMS5003;62753;40.394;-80.022;2024-01-06T05:45:40;34;31;
74333;PMS5003;62753;40.394;-80.022;2024-01-06T05:48:08;34;32;
74333;PMS5003;62753;40.394;-80.022;2024-01-06T05:50:30;37;28;
74333;PMS5003;62753;40.394;-80.022;2024-01-06T05:52:55;33;27;
74333;PMS5003;62753;40.394;-80.022;2024-01-06T05:55:20;41;32;
74333;PMS5003;62753;40.394;-80.022;2024-01-06T05:57:45;34;30;
74333;PMS5003;62753;40.394;-80.022;2024-01-06T06:00:12;44;31;
74333;PMS5003;62753;40.394;-80.022;2024-01-06T06:02:36;41;34;
74333;PMS5003;62753;40.394;-80.022;2024-01-06T06:05:01;39;29;
74333;PMS5003;62753;40.394;-80.022;2024-01-06T06:07:26;36;26;
74333;PMS5003;62753;40.394;-80.022;2024-01-06T06:09:51;38;30;
74333;PMS5003;62753;40.394;-80.022;2024-01-06T06:12:17;40;33;
74333;PMS5003;62753;40.394;-80.022;2024-01-06T06:14:43;36;28;
74333;PMS5003;62753;40.394;-80.022;2024-01-06T06:17:09;36;26;
74333;PMS5003;62753;40.394;-80.022;2024-01-06T06:19:34;41;31;
74333;PMS5003;62753;40.394;-80.022;2024-01-06T06:22:01;32;26;
74333;PMS5003;62753;40.394;-80.022;2024-01-06T06:24:26;35;28;
74333;PMS5003;62753;40.394;-80.022;2024-01-06T06:26:54;35;26;
74333;PMS5003;62753;40.394;-80.022;2024-01-06T06:29:19;31;30;
74333;PMS5003;62753;40.394;-80.022;2024-01-06T06:31:41;32;26;
74333;PMS5003;62753;40.394;-80.022;2024-01-06T06:34:09;30;27;
74333;PMS5003;62753;40.394;-80.022;2024-01-06T06:36:32;33;28;
74333;PMS5003;62753;40.394;-80.022;2024-01-06T06:38:58;31;25;
74333;PMS5003;62753;40.394;-80.022;2024-01-06T06:41:23;31;27;
74333;PMS5003;62753;40.394;-80.022;2024-01-06T06:43:48;31;26;
74333;PMS5003;62753;40.394;-80.022;2024-01-06T06:46:14;35;32;
74333;PMS5003;62753;40.394;-80.022;2024-01-06T06:48:39;36;32;
74333;PMS5003;62753;40.394;-80.022;2024-01-06T06:51:04;33;29;
74333;PMS5003;62753;40.394;-80.022;2024-01-06T06:53:31;32;27;
74333;PMS5003;62753;40.394;-80.022;2024-01-06T06:55:57;31;27;
74333;PMS5003;62753;40.394;-80.022;2024-01-06T06:58:20;40;31;
74333;PMS5003;62753;40.394;-80.022;2024-01-06T07:00:46;38;31;
74333;PMS5003;62753;40.394;-80.022;2024-01-06T07:03:11;40;32;
74333;PMS5003;62753;40.394;-80.022;2024-01-06T07:08:02;31;26;
74333;PMS5003;62753;40.394;-80.022;2024-01-06T07:10:27;42;31;
74333;PMS5003;62753;40.394;-80.022;2024-01-06T07:12:52;35;32;
74333;PMS5003;62753;40.394;-80.022;2024-01-06T07:15:18;39;31;
74333;PMS5003;62753;40.394;-80.022;2024-01-06T07:17:45;43;32;
74333;PMS5003;62753;40.394;-80.022;2024-01-06T07:20:10;46;35;
74333;PMS5003;62753;40.394;-80.022;2024-01-06T07:22:36;37;32;
74333;PMS5003;62753;40.394;-80.022;2024-01-06T07:25:00;40;29;
74333;PMS5003;62753;40.394;-80.022;2024-01-06T07:27:25;38;32;
74333;PMS5003;62753;40.394;-80.022;2024-01-06T07:29:51;38;30;
74333;PMS5003;62753;40.394;-80.022;2024-01-06T07:32:16;38;32;
74333;PMS5003;62753;40.394;-80.022;2024-01-06T07:34:42;40;34;
74333;PMS5003;62753;40.394;-80.022;2024-01-06T07:37:10;33;30;
74333;PMS5003;62753;40.394;-80.022;2024-01-06T07:39:36;48;37;
74333;PMS5003;62753;40.394;-80.022;2024-01-06T07:41:59;38;33;
74333;PMS5003;62753;40.394;-80.022;2024-01-06T07:44:25;45;37;
74333;PMS5003;62753;40.394;-80.022;2024-01-06T07:46:49;43;37;
74333;PMS5003;62753;40.394;-80.022;2024-01-06T07:49:14;37;31;
74333;PMS5003;62753;40.394;-80.022;2024-01-06T07:51:40;36;31;
74333;PMS5003;62753;40.394;-80.022;2024-01-06T07:54:05;39;31;
74333;PMS5003;62753;40.394;-80.022;2024-01-06T07:56:31;35;30;
74333;PMS5003;62753;40.394;-80.022;2024-01-06T07:58:56;39;32;
74333;PMS5003;62753;40.394;-80.022;2024-01-06T08:01:22;44;36;
74333;PMS5003;62753;40.394;-80.022;2024-01-06T08:03:46;42;32;
74333;PMS5003;62753;40.394;-80.022;2024-01-06T08:06:12;37;32;
74333;PMS5003;62753;40.394;-80.022;2024-01-06T08:08:37;37;30;
74333;PMS5003;62753;40.394;-80.022;2024-01-06T08:11:03;36;29;
74333;PMS5003;62753;40.394;-80.022;2024-01-06T08:13:30;37;31;
74333;PMS5003;62753;40.394;-80.022;2024-01-06T08:15:54;37;33;
74333;PMS5003;62753;40.394;-80.022;2024-01-06T08:18:19;40;33;
74333;PMS5003;62753;40.394;-80.022;2024-01-06T08:20:44;38;33;
74333;PMS5003;62753;40.394;-80.022;2024-01-06T08:23:10;31;25;
74333;PMS5003;62753;40.394;-80.022;2024-01-06T08:25:36;33;31;
74333;PMS5003;62753;40.394;-80.022;2024-01-06T08:28:01;43;36;
74333;PMS5003;62753;40.394;-80.022;2024-01-06T08:30:27;38;30;
74333;PMS5003;62753;40.394;-80.022;2024-01-06T08:32:52;43;36;
74333;PMS5003;62753;40.394;-80.022;2024-01-06T08:35:17;35;31;
74333;PMS5003;62753;40.394;-80.022;2024-01-06T08:37:43;38;30;
74333;PMS5003;62753;40.394;-80.022;2024-01-06T08:40:09;32;29;
74333;PMS5003;62753;40.394;-80.022;2024-01-06T08:42:34;30;27;
74333;PMS5003;62753;40.394;-80.022;2024-01-06T08:45:00;45;32;
74333;PMS5003;62753;40.394;-80.022;2024-01-06T08:47:25;40;33;
74333;PMS5003;62753;40.394;-80.022;2024-01-06T08:49:51;41;32;
74333;PMS5003;62753;40.394;-80.022;2024-01-06T08:52:16;38;31;
74333;PMS5003;62753;40.394;-80.022;2024-01-06T08:54:41;33;28;
74333;PMS5003;62753;40.394;-80.022;2024-01-06T08:57:07;37;31;
74333;PMS5003;62753;40.394;-80.022;2024-01-06T08:59:32;37;29;
74333;PMS5003;62753;40.394;-80.022;2024-01-06T09:01:58;31;27;
74333;PMS5003;62753;40.394;-80.022;2024-01-06T09:04:23;37;31;
74333;PMS5003;62753;40.394;-80.022;2024-01-06T09:06:49;41;33;
74333;PMS5003;62753;40.394;-80.022;2024-01-06T09:09:14;33;30;
74333;PMS5003;62753;40.394;-80.022;2024-01-06T09:11:40;40;32;
74333;PMS5003;62753;40.394;-80.022;2024-01-06T09:14:04;36;28;
74333;PMS5003;62753;40.394;-80.022;2024-01-06T09:16:30;35;27;
74333;PMS5003;62753;40.394;-80.022;2024-01-06T09:18:57;35;32;
74333;PMS5003;62753;40.394;-80.022;2024-01-06T09:21:21;45;35;
74333;PMS5003;62753;40.394;-80.022;2024-01-06T09:23:47;34;28;
74333;PMS5003;62753;40.394;-80.022;2024-01-06T09:26:14;39;31;
74333;PMS5003;62753;40.394;-80.022;2024-01-06T09:28:38;36;31;
74333;PMS5003;62753;40.394;-80.022;2024-01-06T09:31:03;34;30;
74333;PMS5003;62753;40.394;-80.022;2024-01-06T09:33:30;30;28;
74333;PMS5003;62753;40.394;-80.022;2024-01-06T09:35:56;39;31;
74333;PMS5003;62753;40.394;-80.022;2024-01-06T09:38:20;45;36;
74333;PMS5003;62753;40.394;-80.022;2024-01-06T09:40:48;43;32;
74333;PMS5003;62753;40.394;-80.022;2024-01-06T09:43:11;39;30;
74333;PMS5003;62753;40.394;-80.022;2024-01-06T09:45:37;47;36;
74333;PMS5003;62753;40.394;-80.022;2024-01-06T09:48:03;42;33;
74333;PMS5003;62753;40.394;-80.022;2024-01-06T09:50:27;33;29;
74333;PMS5003;62753;40.394;-80.022;2024-01-06T09:52:53;33;27;
74333;PMS5003;62753;40.394;-80.022;2024-01-06T09:55:21;39;31;
74333;PMS5003;62753;40.394;-80.022;2024-01-06T09:57:45;39;30;
74333;PMS5003;62753;40.394;-80.022;2024-01-06T10:00:09;41;33;
74333;PMS5003;62753;40.394;-80.022;2024-01-06T10:02:34;35;31;
74333;PMS5003;62753;40.394;-80.022;2024-01-06T10:05:00;31;26;
74333;PMS5003;62753;40.394;-80.022;2024-01-06T10:07:27;33;28;
74333;PMS5003;62753;40.394;-80.022;2024-01-06T10:09:52;33;27;
74333;PMS5003;62753;40.394;-80.022;2024-01-06T10:12:17;38;29;
74333;PMS5003;62753;40.394;-80.022;2024-01-06T10:14:42;33;29;
74333;PMS5003;62753;40.394;-80.022;2024-01-06T10:17:08;29;29;
74333;PMS5003;62753;40.394;-80.022;2024-01-06T10:19:33;37;30;
74333;PMS5003;62753;40.394;-80.022;2024-01-06T10:21:58;33;30;
74333;PMS5003;62753;40.394;-80.022;2024-01-06T10:24:24;36;30;
74333;PMS5003;62753;40.394;-80.022;2024-01-06T10:26:49;32;30;
74333;PMS5003;62753;40.394;-80.022;2024-01-06T10:29:17;30;27;
74333;PMS5003;62753;40.394;-80.022;2024-01-06T10:31:40;28;26;
74333;PMS5003;62753;40.394;-80.022;2024-01-06T10:34:05;33;26;
74333;PMS5003;62753;40.394;-80.022;2024-01-06T10:36:31;37;29;
74333;PMS5003;62753;40.394;-80.022;2024-01-06T10:38:57;29;24;
74333;PMS5003;62753;40.394;-80.022;2024-01-06T10:41:22;33;28;
74333;PMS5003;62753;40.394;-80.022;2024-01-06T10:43:47;36;31;
74333;PMS5003;62753;40.394;-80.022;2024-01-06T10:46:12;30;26;
74333;PMS5003;62753;40.394;-80.022;2024-01-06T10:48:40;30;25;
74333;PMS5003;62753;40.394;-80.022;2024-01-06T10:51:03;26;24;
74333;PMS5003;62753;40.394;-80.022;2024-01-06T10:53:30;35;25;
74333;PMS5003;62753;40.394;-80.022;2024-01-06T10:55:54;26;25;
74333;PMS5003;62753;40.394;-80.022;2024-01-06T10:58:20;30;27;
74333;PMS5003;62753;40.394;-80.022;2024-01-06T11:00:45;40;30;
74333;PMS5003;62753;40.394;-80.022;2024-01-06T11:03:10;41;28;
74333;PMS5003;62753;40.394;-80.022;2024-01-06T11:05:35;28;26;
74333;PMS5003;62753;40.394;-80.022;2024-01-06T11:08:00;34;30;
74333;PMS5003;62753;40.394;-80.022;2024-01-06T11:10:27;28;25;
74333;PMS5003;62753;40.394;-80.022;2024-01-06T11:17:50;30;29;
74333;PMS5003;62753;40.394;-80.022;2024-01-06T11:20:09;33;29;
74333;PMS5003;62753;40.394;-80.022;2024-01-06T11:22:33;36;30;
74333;PMS5003;62753;40.394;-80.022;2024-01-06T11:25:03;34;32;
74333;PMS5003;62753;40.394;-80.022;2024-01-06T11:27:25;30;27;
74333;PMS5003;62753;40.394;-80.022;2024-01-06T11:29:50;37;30;
74333;PMS5003;62753;40.394;-80.022;2024-01-06T11:32:18;43;35;
74333;PMS5003;62753;40.394;-80.022;2024-01-06T11:34:44;28;26;
74333;PMS5003;62753;40.394;-80.022;2024-01-06T11:37:05;31;29;
74333;PMS5003;62753;40.394;-80.022;2024-01-06T11:39:34;35;28;
74333;PMS5003;62753;40.394;-80.022;2024-01-06T11:41:57;39;29;
74333;PMS5003;62753;40.394;-80.022;2024-01-06T11:44:21;34;27;
74333;PMS5003;62753;40.394;-80.022;2024-01-06T11:46:47;27;23;
74333;PMS5003;62753;40.394;-80.022;2024-01-06T11:49:12;34;28;
74333;PMS5003;62753;40.394;-80.022;2024-01-06T11:51:37;40;32;
74333;PMS5003;62753;40.394;-80.022;2024-01-06T11:54:04;36;30;
74333;PMS5003;62753;40.394;-80.022;2024-01-06T11:56:28;38;26;
74333;PMS5003;62753;40.394;-80.022;2024-01-06T11:58:53;32;24;
74333;PMS5003;62753;40.394;-80.022;2024-01-06T12:01:19;32;26;
74333;PMS5003;62753;40.394;-80.022;2024-01-06T12:03:44;33;28;
74333;PMS5003;62753;40.394;-80.022;2024-01-06T12:06:11;36;26;
74333;PMS5003;62753;40.394;-80.022;2024-01-06T12:08:35;35;25;
74333;PMS5003;62753;40.394;-80.022;2024-01-06T12:11:02;26;23;
74333;PMS5003;62753;40.394;-80.022;2024-01-06T12:13:26;29;28;
74333;PMS5003;62753;40.394;-80.022;2024-01-06T12:15:51;28;24;
74333;PMS5003;62753;40.394;-80.022;2024-01-06T12:18:16;32;28;
74333;PMS5003;62753;40.394;-80.022;2024-01-06T12:20:41;31;26;
74333;PMS5003;62753;40.394;-80.022;2024-01-06T12:23:07;36;27;
74333;PMS5003;62753;40.394;-80.022;2024-01-06T12:25:32;38;27;
74333;PMS5003;62753;40.394;-80.022;2024-01-06T12:27:58;30;28;
74333;PMS5003;62753;40.394;-80.022;2024-01-06T12:30:23;31;28;
74333;PMS5003;62753;40.394;-80.022;2024-01-06T12:32:49;28;25;
74333;PMS5003;62753;40.394;-80.022;2024-01-06T12:35:13;35;29;
74333;PMS5003;62753;40.394;-80.022;2024-01-06T12:37:39;40;27;
74333;PMS5003;62753;40.394;-80.022;2024-01-06T12:40:04;35;28;
74333;PMS5003;62753;40.394;-80.022;2024-01-06T12:42:30;34;24;
74333;PMS5003;62753;40.394;-80.022;2024-01-06T12:44:55;26;23;
74333;PMS5003;62753;40.394;-80.022;2024-01-06T12:47:22;34;24;
74333;PMS5003;62753;40.394;-80.022;2024-01-06T12:49:47;34;24;
74333;PMS5003;62753;40.394;-80.022;2024-01-06T12:52:12;33;24;
74333;PMS5003;62753;40.394;-80.022;2024-01-06T12:54:37;35;24;
74333;PMS5003;62753;40.394;-80.022;2024-01-06T12:57:04;32;28;
74333;PMS5003;62753;40.394;-80.022;2024-01-06T12:59:28;25;22;
74333;PMS5003;62753;40.394;-80.022;2024-01-06T13:01:54;25;21;
74333;PMS5003;62753;40.394;-80.022;2024-01-06T13:04:19;30;23;
74333;PMS5003;62753;40.394;-80.022;2024-01-06T13:06:46;26;24;
74333;PMS5003;62753;40.394;-80.022;2024-01-06T13:09:11;30;22;
74333;PMS5003;62753;40.394;-80.022;2024-01-06T13:11:36;28;22;
74333;PMS5003;62753;40.394;-80.022;2024-01-06T13:14:01;27;22;
74333;PMS5003;62753;40.394;-80.022;2024-01-06T13:16:26;28;25;
74333;PMS5003;62753;40.394;-80.022;2024-01-06T13:18:51;38;28;
74333;PMS5003;62753;40.394;-80.022;2024-01-06T13:21:17;34;24;
74333;PMS5003;62753;40.394;-80.022;2024-01-06T13:23:42;35;26;
74333;PMS5003;62753;40.394;-80.022;2024-01-06T13:26:08;32;24;
74333;PMS5003;62753;40.394;-80.022;2024-01-06T13:28:33;27;23;
74333;PMS5003;62753;40.394;-80.022;2024-01-06T13:30:58;28;24;
74333;PMS5003;62753;40.394;-80.022;2024-01-06T13:33:25;29;24;
74333;PMS5003;62753;40.394;-80.022;2024-01-06T13:35:52;22;22;
74333;PMS5003;62753;40.394;-80.022;2024-01-06T13:38:15;30;25;
74333;PMS5003;62753;40.394;-80.022;2024-01-06T13:40:40;23;23;
74333;PMS5003;62753;40.394;-80.022;2024-01-06T13:43:07;31;26;
74333;PMS5003;62753;40.394;-80.022;2024-01-06T13:45:32;28;23;
74333;PMS5003;62753;40.394;-80.022;2024-01-06T13:47:56;28;24;
74333;PMS5003;62753;40.394;-80.022;2024-01-06T13:50:23;26;26;
74333;PMS5003;62753;40.394;-80.022;2024-01-06T13:52:47;23;22;
74333;PMS5003;62753;40.394;-80.022;2024-01-06T13:55:12;32;27;
74333;PMS5003;62753;40.394;-80.022;2024-01-06T13:57:38;25;23;
74333;PMS5003;62753;40.394;-80.022;2024-01-06T14:00:03;23;21;
74333;PMS5003;62753;40.394;-80.022;2024-01-06T14:02:28;25;21;
74333;PMS5003;62753;40.394;-80.022;2024-01-06T14:04:53;26;23;
74333;PMS5003;62753;40.394;-80.022;2024-01-06T14:07:19;27;20;
74333;PMS5003;62753;40.394;-80.022;2024-01-06T14:09:44;30;23;
74333;PMS5003;62753;40.394;-80.022;2024-01-06T14:12:10;24;21;
74333;PMS5003;62753;40.394;-80.022;2024-01-06T14:14:35;32;23;
74333;PMS5003;62753;40.394;-80.022;2024-01-06T14:17:02;26;23;
74333;PMS5003;62753;40.394;-80.022;2024-01-06T14:19:27;23;20;
74333;PMS5003;62753;40.394;-80.022;2024-01-06T14:21:52;24;20;
74333;PMS5003;62753;40.394;-80.022;2024-01-06T14:24:17;26;24;
74333;PMS5003;62753;40.394;-80.022;2024-01-06T14:26:43;24;23;
74333;PMS5003;62753;40.394;-80.022;2024-01-06T14:29:08;24;20;
74333;PMS5003;62753;40.394;-80.022;2024-01-06T14:31:33;26;21;
74333;PMS5003;62753;40.394;-80.022;2024-01-06T14:33:59;31;24;
74333;PMS5003;62753;40.394;-80.022;2024-01-06T14:36:24;25;19;
74333;PMS5003;62753;40.394;-80.022;2024-01-06T14:38:49;25;19;
74333;PMS5003;62753;40.394;-80.022;2024-01-06T14:41:15;22;19;
74333;PMS5003;62753;40.394;-80.022;2024-01-06T14:43:41;26;25;
74333;PMS5003;62753;40.394;-80.022;2024-01-06T14:46:06;25;22;
74333;PMS5003;62753;40.394;-80.022;2024-01-06T14:48:32;22;19;
74333;PMS5003;62753;40.394;-80.022;2024-01-06T14:50:59;22;21;
74333;PMS5003;62753;40.394;-80.022;2024-01-06T14:53:22;21;19;
74333;PMS5003;62753;40.394;-80.022;2024-01-06T14:55:47;20;19;
74333;PMS5003;62753;40.394;-80.022;2024-01-06T14:58:14;21;17;
74333;PMS5003;62753;40.394;-80.022;2024-01-06T15:00:37;20;15;
74333;PMS5003;62753;40.394;-80.022;2024-01-06T15:03:04;20;18;
74333;PMS5003;62753;40.394;-80.022;2024-01-06T15:05:28;21;18;
74333;PMS5003;62753;40.394;-80.022;2024-01-06T15:07:54;19;16;
74333;PMS5003;62753;40.394;-80.022;2024-01-06T15:10:19;20;19;
74333;PMS5003;62753;40.394;-80.022;2024-01-06T15:12:45;23;16;
74333;PMS5003;62753;40.394;-80.022;2024-01-06T15:15:11;16;15;
74333;PMS5003;62753;40.394;-80.022;2024-01-06T15:17:37;23;18;
74333;PMS5003;62753;40.394;-80.022;2024-01-06T15:20:02;21;15;
74333;PMS5003;62753;40.394;-80.022;2024-01-06T15:22:28;21;19;
74333;PMS5003;62753;40.394;-80.022;2024-01-06T15:24:53;16;14;
74333;PMS5003;62753;40.394;-80.022;2024-01-06T15:27:17;16;15;
74333;PMS5003;62753;40.394;-80.022;2024-01-06T15:29:42;20;14;
74333;PMS5003;62753;40.394;-80.022;2024-01-06T15:32:08;14;10;
74333;PMS5003;62753;40.394;-80.022;2024-01-06T15:34:34;18;16;
74333;PMS5003;62753;40.394;-80.022;2024-01-06T15:36:58;21;15;
74333;PMS5003;62753;40.394;-80.022;2024-01-06T15:39:24;21;16;
74333;PMS5003;62753;40.394;-80.022;2024-01-06T15:41:49;16;14;